Time;durP1;ratioP1;P1;durP2;ratioP2;P2;SDS_P1;SDS_P2;PMS_P1;PMS_P2;Temp;Humidity;BMP_temperature;BMP_pressure;BME280_temperature;BME280_humidity;BME280_pressure;Samples;Min_cycle;Max_cycle;Signal;HPM_P1;HPM_P2
2023/03/29 00:01:24;;;;;;;5.93;2.60;;;;;;;;;;4989665;28;20054;-78
2023/03/29 00:04:03;;;;;;;11.95;2.65;;;;;;;;;;4990704;28;20742;-79
2023/03/29 00:06:31;;;;;;;6.68;2.92;;;;;;;;;;4993782;28;20038;-79
2023/03/29 00:09:00;;;;;;;9.00;2.90;;;;;;;;;;4974783;28;20043;-79
2023/03/29 00:11:35;;;;;;;9.15;2.63;;;;;;;;;;4993250;28;20053;-79
2023/03/29 00:14:29;;;;;;;7.38;2.47;;;;;;;;;;4972746;28;20027;-79
2023/03/29 00:19:56;;;;;;;6.15;2.47;;;;;;;;;;4988941;28;20040;-79
2023/03/29 00:22:31;;;;;;;8.52;2.47;;;;;;;;;;4995073;28;20149;-79
2023/03/29 00:25:03;;;;;;;6.50;2.45;;;;;;;;;;4995781;28;20146;-79
2023/03/29 00:27:31;;;;;;;6.85;2.80;;;;;;;;;;5007205;28;20056;-79
2023/03/29 00:29:59;;;;;;;7.82;2.90;;;;;;;;;;4966320;28;20145;-79
2023/03/29 00:32:53;;;;;;;7.97;2.47;;;;;;;;;;4990110;28;20039;-79
2023/03/29 00:35:21;;;;;;;6.00;2.65;;;;;;;;;;4975579;28;20125;-78
2023/03/29 00:38:15;;;;;;;9.32;2.50;;;;;;;;;;4991204;28;20480;-79
2023/03/29 00:40:48;;;;;;;9.20;2.47;;;;;;;;;;4971589;28;20077;-78
2023/03/29 00:43:17;;;;;;;5.38;2.15;;;;;;;;;;4973034;28;20415;-78
2023/03/29 00:45:49;;;;;;;5.75;2.50;;;;;;;;;;4989620;28;20041;-78
2023/03/29 00:48:43;;;;;;;5.85;2.72;;;;;;;;;;4992058;28;20042;-78
2023/03/29 00:51:13;;;;;;;6.88;2.47;;;;;;;;;;4988682;28;20500;-78
2023/03/29 00:53:54;;;;;;;6.53;2.40;;;;;;;;;;4987519;28;20083;-78
2023/03/29 00:56:37;;;;;;;11.60;2.60;;;;;;;;;;4987767;28;20057;-79
2023/03/29 00:59:31;;;;;;;8.02;2.25;;;;;;;;;;4986575;28;20042;-79
2023/03/29 01:02:02;;;;;;;4.45;2.05;;;;;;;;;;4986333;28;20785;-79
2023/03/29 01:05:04;;;;;;;6.68;2.17;;;;;;;;;;4975121;28;20046;-79
2023/03/29 01:07:47;;;;;;;9.02;2.55;;;;;;;;;;4980435;28;20042;-79
2023/03/29 01:10:20;;;;;;;4.32;2.40;;;;;;;;;;4989886;28;20034;-79
2023/03/29 01:13:00;;;;;;;3.88;2.28;;;;;;;;;;4971114;28;20046;-79
2023/03/29 01:15:28;;;;;;;10.38;2.30;;;;;;;;;;5003855;28;20046;-79
2023/03/29 01:17:56;;;;;;;6.30;2.67;;;;;;;;;;4964870;28;20046;-79
2023/03/29 01:20:27;;;;;;;6.90;2.25;;;;;;;;;;4988567;28;20134;-79
2023/03/29 01:23:57;;;;;;;11.40;2.58;;;;;;;;;;4988863;28;20080;-79
2023/03/29 01:26:38;;;;;;;4.88;2.13;;;;;;;;;;4960308;28;20039;-79
2023/03/29 01:29:07;;;;;;;8.80;2.88;;;;;;;;;;4952570;28;20110;-79
2023/03/29 01:32:04;;;;;;;4.30;2.25;;;;;;;;;;4961925;28;20425;-79
2023/03/29 01:34:54;;;;;;;5.57;2.08;;;;;;;;;;4952518;28;20048;-79
2023/03/29 01:37:28;;;;;;;4.75;2.20;;;;;;;;;;4960815;28;20051;-79
2023/03/29 01:39:55;;;;;;;7.10;2.10;;;;;;;;;;4960989;28;20102;-79
2023/03/29 01:42:55;;;;;;;7.53;2.22;;;;;;;;;;4959884;28;20051;-79
2023/03/29 01:45:38;;;;;;;6.43;2.20;;;;;;;;;;4952510;28;20047;-78
2023/03/29 01:48:23;;;;;;;5.80;2.08;;;;;;;;;;4958740;28;20103;-78
2023/03/29 01:50:54;;;;;;;6.13;2.42;;;;;;;;;;4946488;28;20043;-79
2023/03/29 01:53:48;;;;;;;6.65;2.25;;;;;;;;;;4958566;28;20510;-79
2023/03/29 01:56:20;;;;;;;6.18;2.60;;;;;;;;;;4960772;28;20074;-79
2023/03/29 01:58:55;;;;;;;5.35;2.05;;;;;;;;;;4943099;28;20047;-79
2023/03/29 02:01:37;;;;;;;5.57;2.10;;;;;;;;;;4983189;28;20042;-79
2023/03/29 02:04:11;;;;;;;6.85;2.67;;;;;;;;;;4986854;28;20054;-79
2023/03/29 02:07:07;;;;;;;5.32;2.03;;;;;;;;;;4985930;28;20046;-79
2023/03/29 02:09:37;;;;;;;5.13;2.10;;;;;;;;;;5003135;28;20042;-79
2023/03/29 02:12:07;;;;;;;9.38;2.35;;;;;;;;;;5000445;28;20411;-79
2023/03/29 02:15:01;;;;;;;3.88;1.83;;;;;;;;;;4987808;28;20034;-79
2023/03/29 02:17:29;;;;;;;5.78;1.95;;;;;;;;;;4969212;28;20396;-79
2023/03/29 02:20:03;;;;;;;8.25;2.45;;;;;;;;;;4970571;28;20042;-79
2023/03/29 02:23:12;;;;;;;4.85;2.13;;;;;;;;;;4972380;28;20042;-79
2023/03/29 02:25:41;;;;;;;4.30;2.08;;;;;;;;;;4987180;28;20054;-79
2023/03/29 02:28:09;;;;;;;7.57;2.35;;;;;;;;;;5001309;28;20377;-79
2023/03/29 02:30:45;;;;;;;6.78;2.40;;;;;;;;;;4987574;28;20068;-79
2023/03/29 02:33:18;;;;;;;6.03;2.42;;;;;;;;;;4986526;28;20046;-79
2023/03/29 02:36:04;;;;;;;5.05;2.17;;;;;;;;;;4986496;28;20038;-79
2023/03/29 02:38:31;;;;;;;8.57;2.58;;;;;;;;;;4985346;28;20100;-79
2023/03/29 02:41:29;;;;;;;7.07;2.72;;;;;;;;;;4985216;28;20125;-79
2023/03/29 02:44:01;;;;;;;6.32;2.10;;;;;;;;;;4970163;28;20125;-79
2023/03/29 02:47:01;;;;;;;6.32;2.33;;;;;;;;;;5000358;28;20077;-78
2023/03/29 02:49:29;;;;;;;6.13;2.00;;;;;;;;;;4974458;28;20496;-79
2023/03/29 02:52:33;;;;;;;4.70;2.40;;;;;;;;;;4985289;28;20030;-79
2023/03/29 02:55:04;;;;;;;4.88;2.30;;;;;;;;;;4962117;28;20088;-79
2023/03/29 02:57:31;;;;;;;10.23;2.20;;;;;;;;;;4969752;28;21057;-79
2023/03/29 02:59:59;;;;;;;5.45;1.90;;;;;;;;;;4968680;28;20046;-79
2023/03/29 03:02:28;;;;;;;7.78;2.58;;;;;;;;;;4969809;28;20038;-79
2023/03/29 03:05:22;;;;;;;5.32;2.15;;;;;;;;;;4987296;28;20041;-79
2023/03/29 03:08:15;;;;;;;9.40;2.38;;;;;;;;;;4987829;28;20396;-79
2023/03/29 03:11:07;;;;;;;6.28;2.10;;;;;;;;;;4988273;28;20184;-79
2023/03/29 03:13:39;;;;;;;5.07;2.30;;;;;;;;;;4978411;28;20132;-79
2023/03/29 03:16:31;;;;;;;7.13;2.47;;;;;;;;;;5000169;28;20030;-79
2023/03/29 03:19:25;;;;;;;6.63;2.60;;;;;;;;;;4985949;28;20496;-79
2023/03/29 03:21:53;;;;;;;4.95;2.25;;;;;;;;;;4968576;28;20053;-79
2023/03/29 03:24:21;;;;;;;4.22;2.08;;;;;;;;;;4969674;28;20058;-79
2023/03/29 03:26:49;;;;;;;4.63;1.95;;;;;;;;;;4970321;28;20046;-79
2023/03/29 03:29:19;;;;;;;5.97;2.00;;;;;;;;;;4964103;28;20444;-79
2023/03/29 03:32:23;;;;;;;6.65;2.55;;;;;;;;;;5034822;28;20143;-79
2023/03/29 03:35:19;;;;;;;5.38;1.90;;;;;;;;;;5037219;28;20053;-79
2023/03/29 03:37:53;;;;;;;3.95;1.98;;;;;;;;;;5036544;28;20123;-79
2023/03/29 03:40:21;;;;;;;6.97;2.28;;;;;;;;;;5034735;28;20045;-78
2023/03/29 03:42:49;;;;;;;8.60;2.20;;;;;;;;;;5020541;28;20049;-79
2023/03/29 03:45:41;;;;;;;6.43;2.35;;;;;;;;;;5020165;28;20175;-79
2023/03/29 03:48:18;;;;;;;5.30;1.98;;;;;;;;;;5035705;28;20584;-79
2023/03/29 03:50:56;;;;;;;7.55;2.35;;;;;;;;;;5037119;28;20594;-79
2023/03/29 03:53:29;;;;;;;7.55;2.15;;;;;;;;;;5020747;28;20037;-79
2023/03/29 03:56:15;;;;;;;4.97;1.92;;;;;;;;;;5037077;28;20932;-79
2023/03/29 03:59:05;;;;;;;6.22;2.10;;;;;;;;;;5021609;28;20518;-79
2023/03/29 04:01:42;;;;;;;4.28;1.90;;;;;;;;;;5030544;28;20049;-79
2023/03/29 04:04:18;;;;;;;6.80;2.42;;;;;;;;;;5031674;28;20079;-79
2023/03/29 04:07:35;;;;;;;6.13;2.30;;;;;;;;;;5018819;28;20046;-79
2023/03/29 04:10:41;;;;;;;5.82;2.10;;;;;;;;;;5024812;28;20483;-79
2023/03/29 04:13:17;;;;;;;6.28;2.42;;;;;;;;;;5009071;28;20045;-79
2023/03/29 04:16:07;;;;;;;5.43;1.90;;;;;;;;;;5026199;28;20057;-79
2023/03/29 04:18:35;;;;;;;5.60;2.00;;;;;;;;;;5025375;28;20793;-79
2023/03/29 04:21:07;;;;;;;4.10;1.85;;;;;;;;;;5018874;28;20068;-79
2023/03/29 04:23:39;;;;;;;6.95;2.10;;;;;;;;;;5026081;28;20037;-79
2023/03/29 04:26:10;;;;;;;6.40;2.33;;;;;;;;;;5026167;28;20041;-78
2023/03/29 04:28:55;;;;;;;7.45;2.70;;;;;;;;;;5012024;28;20149;-79
2023/03/29 04:31:53;;;;;;;10.82;2.80;;;;;;;;;;5029385;28;20045;-79
2023/03/29 04:34:50;;;;;;;9.35;2.70;;;;;;;;;;5024357;28;20057;-79
2023/03/29 04:37:20;;;;;;;8.48;2.80;;;;;;;;;;5028267;28;20166;-79
2023/03/29 04:39:56;;;;;;;9.43;2.92;;;;;;;;;;5005952;28;20133;-79
2023/03/29 04:42:23;;;;;;;11.50;3.10;;;;;;;;;;4970084;28;20393;-78
2023/03/29 04:44:52;;;;;;;6.57;2.60;;;;;;;;;;4971460;28;20035;-80
2023/03/29 04:47:30;;;;;;;6.30;2.55;;;;;;;;;;4961631;28;20125;-79
2023/03/29 04:50:07;;;;;;;6.03;2.33;;;;;;;;;;4988661;28;20046;-79
2023/03/29 04:52:59;;;;;;;6.90;2.65;;;;;;;;;;4987887;28;20536;-80
2023/03/29 04:55:29;;;;;;;7.70;2.90;;;;;;;;;;4971884;28;20049;-79
2023/03/29 04:58:02;;;;;;;6.50;2.20;;;;;;;;;;4971385;28;20038;-79
2023/03/29 05:00:39;;;;;;;8.65;2.83;;;;;;;;;;4968593;28;20442;-79
2023/03/29 05:03:37;;;;;;;6.28;2.47;;;;;;;;;;5001586;28;20057;-79
2023/03/29 05:06:20;;;;;;;8.23;3.13;;;;;;;;;;5001593;28;20038;-80
2023/03/29 05:09:11;;;;;;;9.18;2.95;;;;;;;;;;5003527;28;20400;-79
2023/03/29 05:11:47;;;;;;;5.32;2.60;;;;;;;;;;4966863;28;20099;-79
2023/03/29 05:14:15;;;;;;;11.02;3.10;;;;;;;;;;5000601;28;20050;-79
2023/03/29 05:16:43;;;;;;;9.18;3.40;;;;;;;;;;4972466;28;20046;-80
2023/03/29 05:19:11;;;;;;;5.65;2.60;;;;;;;;;;4973395;28;20066;-79
2023/03/29 05:21:45;;;;;;;3.60;2.20;;;;;;;;;;4973319;28;20151;-80
2023/03/29 05:24:21;;;;;;;9.52;3.08;;;;;;;;;;4969767;28;20034;-79
2023/03/29 05:27:01;;;;;;;12.75;4.00;;;;;;;;;;4970124;28;20039;-79
2023/03/29 05:29:34;;;;;;;9.77;2.85;;;;;;;;;;4972047;28;20443;-80
2023/03/29 05:32:35;;;;;;;6.90;3.17;;;;;;;;;;4957339;28;20058;-80
2023/03/29 05:35:11;;;;;;;6.30;3.10;;;;;;;;;;4971639;28;20040;-79
2023/03/29 05:38:07;;;;;;;7.18;2.95;;;;;;;;;;4961537;28;20081;-80
2023/03/29 05:40:35;;;;;;;6.25;2.78;;;;;;;;;;4964527;28;20042;-78
2023/03/29 05:43:27;;;;;;;5.47;3.05;;;;;;;;;;4986735;28;20042;-79
2023/03/29 05:45:55;;;;;;;8.77;3.33;;;;;;;;;;4985255;28;20061;-78
2023/03/29 05:48:24;;;;;;;10.23;3.30;;;;;;;;;;4969877;28;20054;-79
2023/03/29 05:51:17;;;;;;;6.32;2.95;;;;;;;;;;4987715;28;20496;-79
2023/03/29 05:53:45;;;;;;;9.75;3.67;;;;;;;;;;4970853;28;20118;-79
2023/03/29 05:56:15;;;;;;;6.68;3.25;;;;;;;;;;4968789;28;20089;-79
2023/03/29 05:59:07;;;;;;;7.70;3.45;;;;;;;;;;4999107;28;20030;-79
2023/03/29 06:01:59;;;;;;;10.40;3.78;;;;;;;;;;4986217;28;20037;-78
2023/03/29 06:04:35;;;;;;;15.05;4.30;;;;;;;;;;4971321;28;20100;-78
2023/03/29 06:07:23;;;;;;;9.63;4.03;;;;;;;;;;4976771;28;20062;-78
2023/03/29 06:10:35;;;;;;;9.88;3.58;;;;;;;;;;4985512;28;20545;-78
2023/03/29 06:13:28;;;;;;;9.07;4.70;;;;;;;;;;4974122;28;20061;-78
2023/03/29 06:15:55;;;;;;;8.80;3.60;;;;;;;;;;4968544;28;20058;-78
2023/03/29 06:18:25;;;;;;;9.52;3.50;;;;;;;;;;4969973;28;20039;-77
2023/03/29 06:20:53;;;;;;;9.75;4.07;;;;;;;;;;4986086;28;20073;-77
2023/03/29 06:23:45;;;;;;;8.77;4.07;;;;;;;;;;4986407;28;20087;-78
2023/03/29 06:26:15;;;;;;;7.10;3.88;;;;;;;;;;4970848;28;20042;-78
2023/03/29 06:29:07;;;;;;;10.80;4.63;;;;;;;;;;4960279;28;20051;-78
2023/03/29 06:31:35;;;;;;;8.52;4.13;;;;;;;;;;4977992;28;20127;-78
2023/03/29 06:34:05;;;;;;;10.98;4.18;;;;;;;;;;4951515;28;20532;-77
2023/03/29 06:36:56;;;;;;;8.50;3.92;;;;;;;;;;4984168;28;20061;-78
2023/03/29 06:39:25;;;;;;;11.50;5.03;;;;;;;;;;4986121;28;20048;-78
2023/03/29 06:42:15;;;;;;;9.13;4.25;;;;;;;;;;4983547;28;20440;-78
2023/03/29 06:45:25;;;;;;;12.40;4.45;;;;;;;;;;4955551;28;20519;-78
2023/03/29 06:47:57;;;;;;;11.73;4.57;;;;;;;;;;4980731;28;20158;-78
2023/03/29 06:50:25;;;;;;;10.48;4.45;;;;;;;;;;4993761;28;20416;-78
2023/03/29 06:53:22;;;;;;;8.98;4.63;;;;;;;;;;4956653;28;20050;-78
2023/03/29 06:55:59;;;;;;;9.80;4.38;;;;;;;;;;4966774;28;20149;-78
2023/03/29 06:58:53;;;;;;;7.82;4.15;;;;;;;;;;4982278;28;20042;-78
2023/03/29 07:01:33;;;;;;;9.27;4.38;;;;;;;;;;4969699;28;20613;-78
2023/03/29 07:04:11;;;;;;;12.00;4.30;;;;;;;;;;4967220;28;20096;-78
2023/03/29 07:07:00;;;;;;;10.10;3.80;;;;;;;;;;4983596;28;20066;-78
2023/03/29 07:09:30;;;;;;;7.38;3.90;;;;;;;;;;4969782;28;20334;-78
2023/03/29 07:12:23;;;;;;;13.77;4.50;;;;;;;;;;4931212;28;20066;-81
2023/03/29 07:14:59;;;;;;;12.00;4.68;;;;;;;;;;4918826;28;20040;-81
2023/03/29 07:17:48;;;;;;;16.15;4.80;;;;;;;;;;4933892;28;20059;-80
2023/03/29 07:20:15;;;;;;;9.32;4.50;;;;;;;;;;4933529;28;20050;-81
2023/03/29 07:23:08;;;;;;;9.27;3.97;;;;;;;;;;4905552;28;20047;-80
2023/03/29 07:25:36;;;;;;;7.72;4.15;;;;;;;;;;4919994;28;20036;-81
2023/03/29 07:28:08;;;;;;;9.77;4.20;;;;;;;;;;4921695;28;20097;-81
2023/03/29 07:30:35;;;;;;;9.85;4.07;;;;;;;;;;4905965;28;20198;-78
2023/03/29 07:33:13;;;;;;;8.88;4.28;;;;;;;;;;4918349;28;20047;-78
2023/03/29 07:36:06;;;;;;;8.38;4.32;;;;;;;;;;4930029;28;20071;-78
2023/03/29 07:38:43;;;;;;;9.27;4.15;;;;;;;;;;4916737;28;20097;-78
2023/03/29 07:41:17;;;;;;;7.57;3.92;;;;;;;;;;4951128;28;20047;-78
2023/03/29 07:43:51;;;;;;;6.80;3.83;;;;;;;;;;4947442;28;20052;-78
2023/03/29 07:46:43;;;;;;;9.70;3.97;;;;;;;;;;4947404;28;20134;-78
2023/03/29 07:49:17;;;;;;;9.13;4.05;;;;;;;;;;4960122;28;20054;-78
2023/03/29 07:51:49;;;;;;;7.47;4.18;;;;;;;;;;4968478;28;20050;-78
2023/03/29 07:54:17;;;;;;;8.45;4.25;;;;;;;;;;4966084;28;20452;-78
2023/03/29 07:56:57;;;;;;;7.40;3.72;;;;;;;;;;4965718;28;20039;-78
2023/03/29 07:59:39;;;;;;;10.90;4.25;;;;;;;;;;4950992;28;20050;-78
2023/03/29 08:02:21;;;;;;;10.93;4.35;;;;;;;;;;4986134;28;20045;-78
2023/03/29 08:04:52;;;;;;;8.20;4.10;;;;;;;;;;4988005;28;20041;-78
2023/03/29 08:07:49;;;;;;;10.20;3.90;;;;;;;;;;5016798;28;20043;-79
2023/03/29 08:10:39;;;;;;;7.18;3.50;;;;;;;;;;4982126;28;20183;-79
2023/03/29 08:13:15;;;;;;;7.65;3.58;;;;;;;;;;4969598;28;20050;-79
2023/03/29 08:16:01;;;;;;;8.63;3.88;;;;;;;;;;4983648;28;20039;-79
2023/03/29 08:18:37;;;;;;;7.78;4.15;;;;;;;;;;4983504;28;20046;-79
2023/03/29 08:21:06;;;;;;;10.35;4.40;;;;;;;;;;5001033;28;20050;-79
2023/03/29 08:23:33;;;;;;;9.25;3.92;;;;;;;;;;4983416;28;20039;-79
2023/03/29 08:26:19;;;;;;;9.82;3.50;;;;;;;;;;4953182;28;20039;-79
2023/03/29 08:28:53;;;;;;;10.40;5.20;;;;;;;;;;4983174;28;20064;-79
2023/03/29 08:31:23;;;;;;;10.55;3.65;;;;;;;;;;4972707;28;20442;-79
2023/03/29 08:33:52;;;;;;;6.90;3.65;;;;;;;;;;4966298;28;20039;-79
2023/03/29 08:36:37;;;;;;;9.98;4.07;;;;;;;;;;4985394;28;20056;-79
2023/03/29 08:39:11;;;;;;;6.82;3.38;;;;;;;;;;4980871;28;20088;-79
2023/03/29 08:42:02;;;;;;;6.50;3.55;;;;;;;;;;4931089;28;20073;-79
2023/03/29 08:44:55;;;;;;;6.95;3.33;;;;;;;;;;4965582;28;20137;-79
2023/03/29 08:47:32;;;;;;;10.65;4.00;;;;;;;;;;4964452;28;20527;-79
2023/03/29 08:50:01;;;;;;;6.78;3.85;;;;;;;;;;4971531;28;20042;-79
2023/03/29 08:52:47;;;;;;;8.30;3.35;;;;;;;;;;4961358;28;20066;-79
2023/03/29 08:55:41;;;;;;;6.82;3.65;;;;;;;;;;4986769;28;20049;-80
2023/03/29 08:58:26;;;;;;;6.50;3.70;;;;;;;;;;4955972;28;20042;-80
2023/03/29 09:00:56;;;;;;;11.15;3.90;;;;;;;;;;4986251;28;20441;-79
2023/03/29 09:03:28;;;;;;;11.43;3.90;;;;;;;;;;4964314;28;20092;-79
2023/03/29 09:06:05;;;;;;;9.13;3.55;;;;;;;;;;5060907;28;20096;-79
2023/03/29 09:08:42;;;;;;;6.60;3.28;;;;;;;;;;4977243;28;20051;-79
2023/03/29 09:11:55;;;;;;;7.25;3.60;;;;;;;;;;4982437;28;20054;-79
2023/03/29 09:14:51;;;;;;;8.27;3.08;;;;;;;;;;5026708;28;20440;-79
2023/03/29 09:17:34;;;;;;;7.65;3.92;;;;;;;;;;5021928;28;20072;-79
2023/03/29 09:20:34;;;;;;;8.00;3.50;;;;;;;;;;5039818;28;20048;-79
2023/03/29 09:23:29;;;;;;;8.18;4.03;;;;;;;;;;5027080;28;20127;-80
2023/03/29 09:26:23;;;;;;;6.63;3.28;;;;;;;;;;5021524;28;20102;-80
2023/03/29 09:29:46;;;;;;;8.48;3.78;;;;;;;;;;5045110;28;20047;-80
2023/03/29 09:32:34;;;;;;;8.52;4.20;;;;;;;;;;5026206;28;20099;-80
2023/03/29 09:35:13;;;;;;;7.65;3.35;;;;;;;;;;5039941;28;20049;-79
2023/03/29 09:37:41;;;;;;;8.43;3.97;;;;;;;;;;5029423;28;20072;-79
2023/03/29 09:40:13;;;;;;;7.70;3.75;;;;;;;;;;5040065;28;20056;-80
2023/03/29 09:43:08;;;;;;;8.60;3.65;;;;;;;;;;5019370;28;20072;-80
2023/03/29 09:45:38;;;;;;;6.78;3.13;;;;;;;;;;5027801;28;20136;-79
2023/03/29 09:48:13;;;;;;;6.03;3.28;;;;;;;;;;5002714;28;20084;-80
2023/03/29 09:50:50;;;;;;;8.82;3.88;;;;;;;;;;4973824;28;20133;-79
2023/03/29 09:53:20;;;;;;;7.28;3.60;;;;;;;;;;4999027;28;20070;-80
2023/03/29 09:56:31;;;;;;;7.93;3.90;;;;;;;;;;4973561;28;20057;-80
2023/03/29 09:59:11;;;;;;;7.40;3.40;;;;;;;;;;4973428;28;20066;-80
2023/03/29 10:01:44;;;;;;;5.88;3.22;;;;;;;;;;4981623;28;20050;-80
2023/03/29 10:04:13;;;;;;;7.25;3.63;;;;;;;;;;4984708;28;20089;-80
2023/03/29 10:07:07;;;;;;;7.32;3.58;;;;;;;;;;5001057;28;20049;-80
2023/03/29 10:09:35;;;;;;;7.18;3.63;;;;;;;;;;4970751;28;20042;-79
2023/03/29 10:12:15;;;;;;;5.97;3.03;;;;;;;;;;4963983;28;20141;-80
2023/03/29 10:14:52;;;;;;;7.00;3.70;;;;;;;;;;4966512;28;20438;-80
2023/03/29 10:17:24;;;;;;;11.38;3.90;;;;;;;;;;4964932;28;20042;-80
2023/03/29 10:20:02;;;;;;;8.23;3.72;;;;;;;;;;4979816;28;20038;-79
2023/03/29 10:22:41;;;;;;;7.03;3.50;;;;;;;;;;4978053;28;20061;-79
2023/03/29 10:25:14;;;;;;;6.80;2.97;;;;;;;;;;4980644;28;20038;-80
2023/03/29 10:27:44;;;;;;;7.63;3.55;;;;;;;;;;4994251;28;20404;-80
2023/03/29 10:30:20;;;;;;;8.10;3.47;;;;;;;;;;4991022;28;20545;-80
2023/03/29 10:32:56;;;;;;;9.65;3.40;;;;;;;;;;4955312;28;20084;-80
2023/03/29 10:35:37;;;;;;;8.15;3.78;;;;;;;;;;4929159;28;20050;-79
2023/03/29 10:38:11;;;;;;;9.18;4.28;;;;;;;;;;4965873;28;20046;-79
2023/03/29 10:40:45;;;;;;;7.75;3.95;;;;;;;;;;4967264;28;20057;-80
2023/03/29 10:43:49;;;;;;;7.57;3.63;;;;;;;;;;4967196;28;20069;-80
2023/03/29 10:46:29;;;;;;;7.47;4.07;;;;;;;;;;4961983;28;20046;-80
2023/03/29 10:48:59;;;;;;;9.80;3.70;;;;;;;;;;4979008;28;20821;-80
2023/03/29 10:51:33;;;;;;;11.65;4.35;;;;;;;;;;4981123;28;20069;-80
2023/03/29 10:54:03;;;;;;;10.27;4.25;;;;;;;;;;4960922;28;20034;-79
2023/03/29 10:56:52;;;;;;;9.32;4.00;;;;;;;;;;4978486;28;20088;-80
2023/03/29 10:59:28;;;;;;;13.13;4.38;;;;;;;;;;4964799;28;20054;-80
2023/03/29 11:02:13;;;;;;;7.05;3.75;;;;;;;;;;4980227;28;20046;-80
2023/03/29 11:04:43;;;;;;;8.50;4.22;;;;;;;;;;4996154;28;20046;-80
2023/03/29 11:07:18;;;;;;;6.90;3.72;;;;;;;;;;4978377;28;20049;-80
2023/03/29 11:10:34;;;;;;;8.88;3.72;;;;;;;;;;4983015;28;20222;-80
2023/03/29 11:13:10;;;;;;;7.60;3.38;;;;;;;;;;4982468;28;20066;-80
2023/03/29 11:15:44;;;;;;;10.68;4.45;;;;;;;;;;4979241;28;20049;-80
2023/03/29 11:18:39;;;;;;;10.40;4.70;;;;;;;;;;4981357;28;20042;-80
2023/03/29 11:21:16;;;;;;;8.43;4.18;;;;;;;;;;4981600;28;20057;-80
2023/03/29 11:24:13;;;;;;;8.45;4.00;;;;;;;;;;4985353;28;20141;-80
2023/03/29 11:27:14;;;;;;;7.85;4.15;;;;;;;;;;4977532;28;20125;-81
2023/03/29 11:30:05;;;;;;;8.05;3.90;;;;;;;;;;4982786;28;20046;-80
2023/03/29 11:32:45;;;;;;;9.15;4.20;;;;;;;;;;4985462;28;20124;-81
2023/03/29 11:35:42;;;;;;;7.30;3.83;;;;;;;;;;4996089;28;20030;-81
2023/03/29 11:38:21;;;;;;;9.43;4.22;;;;;;;;;;4982318;28;20039;-80
2023/03/29 11:40:58;;;;;;;9.55;4.78;;;;;;;;;;4957956;28;20149;-80
2023/03/29 11:43:27;;;;;;;10.57;5.32;;;;;;;;;;4979354;28;20065;-81
2023/03/29 11:46:07;;;;;;;9.80;4.97;;;;;;;;;;4962703;28;20046;-80
2023/03/29 11:48:42;;;;;;;9.82;4.38;;;;;;;;;;4981197;28;20046;-80
2023/03/29 11:51:36;;;;;;;8.65;5.03;;;;;;;;;;4980964;28;20046;-81
2023/03/29 11:54:51;;;;;;;11.38;4.80;;;;;;;;;;4960361;28;20030;-81
2023/03/29 11:57:32;;;;;;;8.55;4.40;;;;;;;;;;4981197;28;20042;-81
2023/03/29 12:00:18;;;;;;;9.45;4.75;;;;;;;;;;4965162;28;20145;-81
2023/03/29 12:02:58;;;;;;;8.05;4.40;;;;;;;;;;4957304;28;20038;-81
2023/03/29 12:05:32;;;;;;;13.18;4.70;;;;;;;;;;4968306;28;20038;-80
2023/03/29 12:08:30;;;;;;;8.77;4.32;;;;;;;;;;4979719;28;20102;-80
2023/03/29 12:11:07;;;;;;;9.80;4.85;;;;;;;;;;4982663;28;20046;-80
2023/03/29 12:13:41;;;;;;;9.45;5.38;;;;;;;;;;4966088;28;20042;-80
2023/03/29 12:16:17;;;;;;;9.30;4.85;;;;;;;;;;4964386;28;20049;-81
2023/03/29 12:18:48;;;;;;;12.30;4.68;;;;;;;;;;4983311;28;20137;-80
2023/03/29 12:21:22;;;;;;;9.73;4.75;;;;;;;;;;4980036;28;20499;-81
2023/03/29 12:23:51;;;;;;;8.63;4.88;;;;;;;;;;4982162;28;20799;-80
2023/03/29 12:26:47;;;;;;;8.25;4.10;;;;;;;;;;4997651;28;20111;-81
2023/03/29 12:29:24;;;;;;;7.95;4.85;;;;;;;;;;4984739;28;20042;-81
2023/03/29 12:32:07;;;;;;;13.13;4.68;;;;;;;;;;4977053;28;20058;-80
2023/03/29 12:34:55;;;;;;;10.70;5.45;;;;;;;;;;4982613;28;20061;-80
2023/03/29 12:37:57;;;;;;;9.65;4.78;;;;;;;;;;4979066;28;20042;-80
2023/03/29 12:41:20;;;;;;;9.50;4.30;;;;;;;;;;4899937;28;20752;-81
2023/03/29 12:44:13;;;;;;;9.82;4.50;;;;;;;;;;4968911;28;20055;-81
2023/03/29 12:46:56;;;;;;;10.60;5.07;;;;;;;;;;4887865;28;20071;-82
2023/03/29 12:49:30;;;;;;;10.82;4.95;;;;;;;;;;4905927;28;20079;-82
2023/03/29 12:52:31;;;;;;;10.80;5.00;;;;;;;;;;4903912;28;20063;-81
2023/03/29 12:55:03;;;;;;;8.32;4.85;;;;;;;;;;4908298;28;20550;-81
2023/03/29 12:57:43;;;;;;;9.30;4.75;;;;;;;;;;4888623;28;20052;-82
2023/03/29 13:00:16;;;;;;;8.30;4.65;;;;;;;;;;4904941;28;20135;-81
2023/03/29 13:03:18;;;;;;;9.13;5.00;;;;;;;;;;4878309;28;20144;-81
2023/03/29 13:05:59;;;;;;;9.68;5.18;;;;;;;;;;4900061;28;20903;-81
2023/03/29 13:08:39;;;;;;;11.75;5.00;;;;;;;;;;4893951;28;20183;-81
2023/03/29 13:11:36;;;;;;;9.55;4.95;;;;;;;;;;4922334;28;20550;-81
2023/03/29 13:14:33;;;;;;;12.70;5.40;;;;;;;;;;4985881;28;20035;-81
2023/03/29 13:17:03;;;;;;;8.90;4.95;;;;;;;;;;5001588;28;20615;-81
2023/03/29 13:20:24;;;;;;;13.70;4.90;;;;;;;;;;4983322;28;20176;-81
2023/03/29 13:23:11;;;;;;;8.43;5.00;;;;;;;;;;4970948;28;20042;-81
2023/03/29 13:25:48;;;;;;;14.60;5.47;;;;;;;;;;4984965;28;20049;-81
2023/03/29 13:28:30;;;;;;;8.95;5.35;;;;;;;;;;4947770;28;20546;-81
2023/03/29 13:31:09;;;;;;;8.07;4.88;;;;;;;;;;5001308;28;20038;-81
2023/03/29 13:33:40;;;;;;;8.45;4.78;;;;;;;;;;4987676;28;20039;-82
2023/03/29 13:36:26;;;;;;;11.10;4.75;;;;;;;;;;4997227;28;20036;-82
2023/03/29 13:39:07;;;;;;;7.35;4.70;;;;;;;;;;4979906;28;20042;-82
2023/03/29 13:41:38;;;;;;;8.52;4.90;;;;;;;;;;5001969;28;20038;-81
2023/03/29 13:44:28;;;;;;;7.40;4.90;;;;;;;;;;4978949;28;20057;-81
2023/03/29 13:47:24;;;;;;;8.45;4.55;;;;;;;;;;4987525;28;20046;-81
2023/03/29 13:49:53;;;;;;;11.70;4.43;;;;;;;;;;4967312;28;20583;-82
2023/03/29 13:52:30;;;;;;;7.97;4.72;;;;;;;;;;4988327;28;20131;-82
2023/03/29 13:55:23;;;;;;;9.95;4.50;;;;;;;;;;4967690;28;20039;-82
2023/03/29 13:58:00;;;;;;;8.07;5.00;;;;;;;;;;4968034;28;20042;-82
2023/03/29 14:00:44;;;;;;;7.90;5.22;;;;;;;;;;4985460;28;20042;-82
2023/03/29 14:03:24;;;;;;;12.18;4.75;;;;;;;;;;4986233;28;20554;-82
2023/03/29 14:05:57;;;;;;;9.45;4.78;;;;;;;;;;4963994;28;20034;-82
2023/03/29 14:08:35;;;;;;;7.53;4.32;;;;;;;;;;4960832;28;20038;-82
2023/03/29 14:11:33;;;;;;;8.52;4.97;;;;;;;;;;4984686;28;20039;-82
2023/03/29 14:14:07;;;;;;;7.93;4.75;;;;;;;;;;4970337;28;20560;-82
2023/03/29 14:16:37;;;;;;;9.48;4.55;;;;;;;;;;4982926;28;20035;-81
2023/03/29 14:19:12;;;;;;;9.93;5.15;;;;;;;;;;4973788;28;20129;-82
2023/03/29 14:21:42;;;;;;;8.00;4.82;;;;;;;;;;4966086;28;20129;-80
2023/03/29 14:24:38;;;;;;;8.85;5.18;;;;;;;;;;4999719;28;20042;-80
2023/03/29 14:27:11;;;;;;;7.70;4.38;;;;;;;;;;5002224;28;20613;-80
2023/03/29 14:29:39;;;;;;;9.20;4.80;;;;;;;;;;4970988;28;20570;-80
2023/03/29 14:32:09;;;;;;;7.43;4.78;;;;;;;;;;4968382;28;20049;-80
2023/03/29 14:34:38;;;;;;;8.45;4.25;;;;;;;;;;4999324;28;20034;-80
2023/03/29 14:37:07;;;;;;;7.75;4.95;;;;;;;;;;4997084;28;20053;-80
2023/03/29 14:39:41;;;;;;;7.75;4.88;;;;;;;;;;4966715;28;20089;-80
2023/03/29 14:42:20;;;;;;;7.20;4.90;;;;;;;;;;4970368;28;20042;-80
2023/03/29 14:44:48;;;;;;;8.25;4.85;;;;;;;;;;4966749;28;20048;-80
2023/03/29 14:47:29;;;;;;;9.45;4.90;;;;;;;;;;4961269;28;20553;-81
2023/03/29 14:49:59;;;;;;;7.50;4.30;;;;;;;;;;4985140;28;20042;-80
2023/03/29 14:52:55;;;;;;;7.18;4.70;;;;;;;;;;4983519;28;20043;-80
2023/03/29 14:55:27;;;;;;;7.35;5.03;;;;;;;;;;4985426;28;20112;-80
2023/03/29 14:57:55;;;;;;;7.60;3.92;;;;;;;;;;4981355;28;20038;-80
2023/03/29 15:00:51;;;;;;;8.48;4.93;;;;;;;;;;4965176;28;20046;-80
2023/03/29 15:03:24;;;;;;;7.22;4.93;;;;;;;;;;4983493;28;20053;-80
2023/03/29 15:06:02;;;;;;;10.65;5.07;;;;;;;;;;4976357;28;20930;-80
2023/03/29 15:08:34;;;;;;;10.75;5.50;;;;;;;;;;4967179;28;20046;-80
2023/03/29 15:11:27;;;;;;;11.60;6.22;;;;;;;;;;4985909;28;20074;-80
2023/03/29 15:14:07;;;;;;;12.27;6.07;;;;;;;;;;4984199;28;20039;-80
2023/03/29 15:17:01;;;;;;;12.43;6.47;;;;;;;;;;4965115;28;20038;-80
2023/03/29 15:19:30;;;;;;;10.32;5.55;;;;;;;;;;4967562;28;20432;-80
2023/03/29 15:22:08;;;;;;;8.25;5.10;;;;;;;;;;4983254;28;20121;-80
2023/03/29 15:25:01;;;;;;;7.15;4.85;;;;;;;;;;4973076;28;20035;-80
2023/03/29 15:27:42;;;;;;;9.63;5.15;;;;;;;;;;4983931;28;20038;-81
2023/03/29 15:30:14;;;;;;;7.90;4.40;;;;;;;;;;4979554;28;20092;-80
2023/03/29 15:32:41;;;;;;;8.00;5.05;;;;;;;;;;4965279;28;20042;-80
2023/03/29 15:35:25;;;;;;;9.80;4.90;;;;;;;;;;4967372;28;20038;-81
2023/03/29 15:37:53;;;;;;;8.82;5.13;;;;;;;;;;4966048;28;20044;-80
2023/03/29 15:40:25;;;;;;;7.90;5.13;;;;;;;;;;4982053;28;20046;-80
2023/03/29 15:42:53;;;;;;;10.60;5.53;;;;;;;;;;4984219;28;20038;-80
2023/03/29 15:45:21;;;;;;;8.15;5.07;;;;;;;;;;4984010;28;20046;-80
2023/03/29 15:47:49;;;;;;;16.45;5.80;;;;;;;;;;4968104;28;20092;-80
2023/03/29 15:50:17;;;;;;;10.63;5.68;;;;;;;;;;4985735;28;20034;-80
2023/03/29 15:52:45;;;;;;;8.07;5.38;;;;;;;;;;4987346;28;20388;-80
2023/03/29 15:55:13;;;;;;;12.77;5.60;;;;;;;;;;4951552;28;20048;-80
2023/03/29 15:58:05;;;;;;;9.88;5.47;;;;;;;;;;4993520;28;20402;-82
2023/03/29 16:00:33;;;;;;;14.32;5.80;;;;;;;;;;4982429;28;20038;-80
2023/03/29 16:03:02;;;;;;;10.85;5.75;;;;;;;;;;4985116;28;20050;-80